createdAt,value
2022-11-30T00:01:16.372Z,101046.78
2022-11-30T00:04:17.915Z,101053.59
2022-11-30T00:07:19.497Z,101046.09
2022-11-30T00:10:22.099Z,101053.50
2022-11-30T00:13:23.729Z,101055.19
2022-11-30T00:16:27.283Z,101057.56
2022-11-30T00:19:29.075Z,101058.69
2022-11-30T00:22:30.623Z,101057.91
2022-11-30T00:25:32.199Z,101055.91
2022-11-30T00:28:35.450Z,101057.37
2022-11-30T00:31:37.009Z,101061.31
2022-11-30T00:34:38.584Z,101062.31
2022-11-30T00:37:40.137Z,101056.47
2022-11-30T00:40:42.069Z,101059.53
2022-11-30T00:43:44.046Z,101058.16
2022-11-30T00:46:45.565Z,101057.59
2022-11-30T00:49:47.108Z,101052.81
2022-11-30T00:52:48.704Z,101056.81
2022-11-30T00:55:50.291Z,101052.31
2022-11-30T00:58:52.033Z,101060.28
2022-11-30T01:01:55.106Z,101055.38
2022-11-30T01:04:56.646Z,101062.44
2022-11-30T01:08:00.219Z,101058.59
2022-11-30T01:11:14.787Z,101058.94
2022-11-30T01:14:16.358Z,101062.28
2022-11-30T01:17:17.902Z,101054.34
2022-11-30T01:20:20.064Z,101054.69
2022-11-30T01:23:21.625Z,101051.34
2022-11-30T01:26:24.497Z,101045.50
2022-11-30T01:29:26.324Z,101048.44
2022-11-30T01:32:28.296Z,101040.78
2022-11-30T01:35:30.045Z,101035.75
2022-11-30T01:38:34.220Z,101033.66
2022-11-30T01:41:36.837Z,101022.09
2022-11-30T01:44:57.379Z,101023.44
2022-11-30T01:47:58.969Z,101024.53
2022-11-30T01:51:00.968Z,101021.09
2022-11-30T01:54:05.820Z,101036.66
2022-11-30T01:57:34.657Z,101031.50
2022-11-30T02:00:36.203Z,101041.69
2022-11-30T02:03:49.030Z,101040.91
2022-11-30T02:06:50.713Z,101048.88
2022-11-30T02:09:52.266Z,101051.44
2022-11-30T02:13:35.409Z,101056.34
2022-11-30T02:17:05.851Z,101059.50
2022-11-30T02:20:29.354Z,101048.62
2022-11-30T02:23:43.200Z,101049.19
2022-11-30T02:27:03.933Z,101045.03
2022-11-30T02:30:11.511Z,101042.69
2022-11-30T02:33:20.266Z,101041.03
2022-11-30T02:36:23.470Z,101039.31
2022-11-30T02:39:25.167Z,101049.06
2022-11-30T02:42:26.718Z,101041.25
2022-11-30T02:45:53.375Z,101031.91
2022-11-30T02:49:05.962Z,101028.12
2022-11-30T02:52:10.055Z,101027.44
2022-11-30T02:55:16.426Z,101022.56
2022-11-30T02:58:18.273Z,101023.66
2022-11-30T03:01:19.863Z,101015.84
2022-11-30T03:04:21.458Z,101012.66
2022-11-30T03:07:23.078Z,101004.06
2022-11-30T03:10:24.637Z,101015.25
2022-11-30T03:13:26.156Z,101023.31
2022-11-30T03:16:27.760Z,101021.19
2022-11-30T03:19:29.425Z,101018.72
2022-11-30T03:22:30.993Z,101024.56
2022-11-30T03:25:32.556Z,101023.66
2022-11-30T03:28:35.505Z,101019.06
2022-11-30T03:31:37.057Z,101031.38
2022-11-30T03:34:38.572Z,101024.78
2022-11-30T03:37:40.125Z,101030.94
2022-11-30T03:40:41.670Z,101034.72
2022-11-30T03:43:47.583Z,101043.25
2022-11-30T03:46:49.177Z,101037.56
2022-11-30T03:49:50.819Z,101036.31
2022-11-30T03:52:52.407Z,101046.72
2022-11-30T03:55:59.638Z,101046.31
2022-11-30T03:59:01.224Z,101035.84
2022-11-30T04:02:02.831Z,101039.00
2022-11-30T04:05:04.609Z,101035.53
2022-11-30T04:08:06.273Z,101026.75
2022-11-30T04:11:08.652Z,101035.03
2022-11-30T04:14:10.265Z,101032.34
2022-11-30T04:17:11.828Z,101026.28
2022-11-30T04:20:13.440Z,101035.12
2022-11-30T04:23:15.053Z,101036.75
2022-11-30T04:26:17.199Z,101031.38
2022-11-30T04:29:18.875Z,101032.56
2022-11-30T04:32:20.496Z,101035.62
2022-11-30T04:35:22.055Z,101035.84
2022-11-30T04:38:24.813Z,101032.12
2022-11-30T04:41:26.437Z,101036.44
2022-11-30T04:44:28.011Z,101036.97
2022-11-30T04:47:29.651Z,101040.66
2022-11-30T04:50:31.383Z,101041.31
2022-11-30T04:53:34.267Z,101037.41
2022-11-30T04:56:35.862Z,101035.72
2022-11-30T04:59:37.457Z,101031.69
2022-11-30T05:02:39.152Z,101027.34
2022-11-30T05:05:40.697Z,101033.59
2022-11-30T05:08:42.255Z,101037.66
2022-11-30T05:11:43.816Z,101049.31
2022-11-30T05:14:45.874Z,101045.72
2022-11-30T05:17:47.769Z,101046.41
2022-11-30T05:20:51.013Z,101049.75
2022-11-30T05:23:52.746Z,101059.94
2022-11-30T05:26:54.351Z,101061.97
2022-11-30T05:29:56.072Z,101054.13
2022-11-30T05:32:57.601Z,101055.03
2022-11-30T05:35:59.244Z,101051.19
2022-11-30T05:39:00.818Z,101062.19
2022-11-30T05:42:02.515Z,101064.97
2022-11-30T05:45:04.450Z,101061.28
2022-11-30T05:48:06.759Z,101064.84
2022-11-30T05:51:15.382Z,101068.22
2022-11-30T05:54:17.105Z,101071.34
2022-11-30T05:57:18.733Z,101069.44
2022-11-30T06:00:21.375Z,101076.03
2022-11-30T06:03:23.121Z,101076.72
2022-11-30T06:06:24.884Z,101080.28
2022-11-30T06:09:26.550Z,101087.13
2022-11-30T06:12:28.090Z,101085.53
2022-11-30T06:15:29.618Z,101087.38
2022-11-30T06:18:31.987Z,101089.31
2022-11-30T06:21:33.683Z,101091.53
2022-11-30T06:24:35.256Z,101094.75
2022-11-30T06:27:36.809Z,101097.09
2022-11-30T06:30:38.448Z,101097.41
2022-11-30T06:33:40.032Z,101096.91
2022-11-30T06:36:41.574Z,101101.75
2022-11-30T06:40:05.249Z,101096.50
2022-11-30T06:43:04.671Z,101097.31
2022-11-30T06:46:07.218Z,101086.03
2022-11-30T06:49:08.863Z,101090.22
2022-11-30T06:52:10.444Z,101090.53
2022-11-30T06:55:12.063Z,101088.19
2022-11-30T06:58:13.633Z,101098.47
2022-11-30T07:01:15.555Z,101090.09
2022-11-30T07:04:17.434Z,101089.59
2022-11-30T07:07:19.079Z,101086.59
2022-11-30T07:10:22.898Z,101099.16
2022-11-30T07:13:24.479Z,101102.09
2022-11-30T07:16:26.104Z,101101.19
2022-11-30T07:19:27.720Z,101105.78
2022-11-30T07:22:29.275Z,101112.38
2022-11-30T07:25:49.324Z,101107.81
2022-11-30T07:28:54.902Z,101115.44
2022-11-30T07:31:56.745Z,101106.91
2022-11-30T07:34:58.390Z,101106.44
2022-11-30T07:38:05.345Z,101114.84
2022-11-30T07:41:10.170Z,101114.75
2022-11-30T07:44:12.014Z,101109.38
2022-11-30T07:47:13.587Z,101107.59
2022-11-30T07:50:15.188Z,101103.19
2022-11-30T07:53:17.395Z,101101.84
2022-11-30T07:56:20.716Z,101103.62
2022-11-30T07:59:22.256Z,101101.41
2022-11-30T08:02:23.913Z,101108.59
2022-11-30T08:05:25.559Z,101109.25
2022-11-30T08:08:30.425Z,101095.25
2022-11-30T08:11:34.819Z,101099.97
2022-11-30T08:14:50.677Z,101096.72
2022-11-30T08:18:00.252Z,101092.88
2022-11-30T08:21:06.789Z,101087.41
2022-11-30T08:24:12.413Z,101093.34
2022-11-30T08:27:14.067Z,101098.91
2022-11-30T08:30:16.083Z,101102.28
2022-11-30T08:33:17.615Z,101098.50
2022-11-30T08:36:21.534Z,101102.75
2022-11-30T08:39:23.109Z,101107.34
2022-11-30T08:42:24.666Z,101110.81
2022-11-30T08:45:26.279Z,101105.50
2022-11-30T08:48:27.810Z,101115.25
2022-11-30T08:51:42.173Z,101105.81
2022-11-30T08:54:51.383Z,101104.84
2022-11-30T08:57:53.066Z,101096.06
2022-11-30T09:00:54.615Z,101092.50
2022-11-30T09:03:57.409Z,101095.25
2022-11-30T09:06:59.374Z,101094.59
2022-11-30T09:10:01.224Z,101088.59
2022-11-30T09:13:02.759Z,101088.03
2022-11-30T09:16:04.828Z,101087.87
2022-11-30T09:19:06.486Z,101085.16
2022-11-30T09:22:08.198Z,101092.53
2022-11-30T09:25:10.395Z,101096.97
2022-11-30T09:28:12.533Z,101093.84
2022-11-30T09:31:19.982Z,101093.50
2022-11-30T09:34:21.725Z,101100.69
2022-11-30T09:37:23.775Z,101096.66
2022-11-30T09:40:33.929Z,101094.28
2022-11-30T09:44:09.487Z,101087.44
2022-11-30T09:47:46.341Z,101090.00
2022-11-30T09:50:49.465Z,101085.94
2022-11-30T09:53:59.635Z,101081.47
2022-11-30T09:57:29.166Z,101085.59
2022-11-30T10:00:31.516Z,101074.72
2022-11-30T10:03:33.374Z,101080.38
2022-11-30T10:06:48.403Z,101075.94
2022-11-30T10:10:30.349Z,101080.78
2022-11-30T10:13:55.745Z,101069.94
2022-11-30T10:17:03.291Z,101062.25
2022-11-30T10:20:27.323Z,101058.84
2022-11-30T10:23:37.813Z,101062.34
2022-11-30T10:26:45.985Z,101053.09
2022-11-30T10:29:47.947Z,101060.34
2022-11-30T10:32:53.964Z,101051.13
2022-11-30T10:36:06.040Z,101050.56
2022-11-30T10:39:30.655Z,101052.75
2022-11-30T10:42:42.799Z,101045.19
2022-11-30T10:45:49.350Z,101046.38
2022-11-30T10:49:06.318Z,101042.59
2022-11-30T10:52:09.398Z,101036.84
2022-11-30T10:55:19.372Z,101033.59
2022-11-30T10:58:29.430Z,101030.84
2022-11-30T11:01:30.982Z,101038.69
2022-11-30T11:04:32.637Z,101037.44
2022-11-30T11:07:42.429Z,101035.34
2022-11-30T11:10:52.493Z,101027.81
2022-11-30T11:14:18.841Z,101028.31
2022-11-30T11:17:21.704Z,101028.22
2022-11-30T11:20:39.397Z,101027.72
2022-11-30T11:23:42.694Z,101040.09
2022-11-30T11:26:52.343Z,101047.88
2022-11-30T11:30:26.017Z,101054.84
2022-11-30T11:33:29.806Z,101053.97
2022-11-30T11:36:33.668Z,101056.94
2022-11-30T11:39:35.313Z,101060.31
2022-11-30T11:42:52.484Z,101058.72
2022-11-30T11:46:11.653Z,101053.94
2022-11-30T11:49:23.359Z,101049.38
2022-11-30T11:52:24.897Z,101048.06
2022-11-30T11:55:26.500Z,101041.03
2022-11-30T11:58:37.945Z,101044.50
2022-11-30T12:01:50.538Z,101040.31
2022-11-30T12:04:56.517Z,101038.62
2022-11-30T12:08:08.681Z,101040.53
2022-11-30T12:11:18.876Z,101039.25
2022-11-30T12:14:20.473Z,101030.37
2022-11-30T12:17:37.530Z,101033.44
2022-11-30T12:20:47.007Z,101026.53
2022-11-30T12:24:02.431Z,101028.25
2022-11-30T12:27:11.901Z,101023.25
2022-11-30T12:30:58.763Z,101034.22
2022-11-30T12:34:25.533Z,101024.69
2022-11-30T12:37:55.000Z,101035.22
2022-11-30T12:41:17.971Z,101031.31
2022-11-30T12:44:28.937Z,101035.34
2022-11-30T12:47:49.164Z,101034.56
2022-11-30T12:51:12.037Z,101029.44
2022-11-30T12:54:53.080Z,101030.50
2022-11-30T12:58:03.614Z,101028.00
2022-11-30T13:01:32.626Z,101027.09
2022-11-30T13:04:43.760Z,101027.69
2022-11-30T13:07:48.426Z,101024.91
2022-11-30T13:10:55.689Z,101038.19
2022-11-30T13:13:59.481Z,101028.88
2022-11-30T13:17:06.196Z,101017.94
2022-11-30T13:20:21.575Z,101020.63
2022-11-30T13:23:48.092Z,101006.72
2022-11-30T13:26:59.770Z,100997.00
2022-11-30T13:30:21.021Z,100995.91
2022-11-30T13:33:49.903Z,100999.37
2022-11-30T13:36:52.184Z,100998.75
2022-11-30T13:39:56.244Z,100997.00
2022-11-30T13:42:58.465Z,101008.12
2022-11-30T13:46:24.047Z,100998.91
2022-11-30T13:49:34.627Z,100996.41
2022-11-30T13:52:58.411Z,100997.09
2022-11-30T13:56:13.422Z,101009.44
2022-11-30T13:59:23.842Z,101012.63
2022-11-30T14:02:41.450Z,101017.47
2022-11-30T14:05:59.771Z,101028.44
2022-11-30T14:09:01.313Z,101028.72
2022-11-30T14:12:31.348Z,101028.91
2022-11-30T14:15:38.966Z,101019.66
2022-11-30T14:18:42.453Z,101019.56
2022-11-30T14:21:44.751Z,101011.72
2022-11-30T14:24:48.671Z,101011.53
2022-11-30T14:27:58.044Z,101012.44
2022-11-30T14:31:00.526Z,100991.44
2022-11-30T14:34:11.896Z,100994.09
2022-11-30T14:37:22.095Z,100997.25
2022-11-30T14:40:26.442Z,100999.06
2022-11-30T14:43:29.888Z,101003.84
2022-11-30T14:46:33.846Z,100998.50
2022-11-30T14:49:35.487Z,101001.16
2022-11-30T14:52:56.336Z,100996.69
2022-11-30T14:56:16.593Z,100997.78
2022-11-30T14:59:29.963Z,101001.81
2022-11-30T15:02:38.941Z,100991.31
2022-11-30T15:05:43.202Z,100990.22
2022-11-30T15:08:53.128Z,100989.44
2022-11-30T15:11:54.943Z,100993.28
2022-11-30T15:15:15.552Z,101002.53
2022-11-30T15:18:19.983Z,101000.31
2022-11-30T15:21:24.432Z,100996.72
2022-11-30T15:24:28.281Z,100998.28
2022-11-30T15:27:30.283Z,100998.72
2022-11-30T15:30:35.951Z,100996.47
2022-11-30T15:33:42.901Z,100988.88
2022-11-30T15:36:45.732Z,100990.16
2022-11-30T15:39:56.980Z,100989.22
2022-11-30T15:43:00.232Z,100991.31
2022-11-30T15:46:01.905Z,100996.44
2022-11-30T15:49:39.696Z,100993.72
2022-11-30T15:52:44.501Z,101000.94
2022-11-30T15:55:51.485Z,101004.88
2022-11-30T15:59:00.987Z,101004.38
2022-11-30T16:02:08.942Z,100999.03
2022-11-30T16:05:14.781Z,101008.66
2022-11-30T16:08:17.997Z,101007.09
2022-11-30T16:11:19.791Z,101007.44
2022-11-30T16:14:21.346Z,101009.66
2022-11-30T16:17:23.418Z,101010.59
2022-11-30T16:20:25.112Z,101007.81
2022-11-30T16:23:28.333Z,101003.44
2022-11-30T16:29:52.880Z,101007.53
2022-11-30T16:32:54.577Z,101012.34
2022-11-30T16:36:04.506Z,101013.47
2022-11-30T16:39:06.913Z,100999.59
2022-11-30T16:42:12.731Z,101001.06
2022-11-30T16:45:17.955Z,100993.91
2022-11-30T16:48:20.221Z,100988.63
2022-11-30T16:51:24.438Z,100987.69
2022-11-30T16:54:26.131Z,101003.19
2022-11-30T16:57:27.720Z,101005.63
2022-11-30T17:00:30.406Z,100994.44
2022-11-30T17:03:35.528Z,101005.34
2022-11-30T17:06:37.291Z,101010.72
2022-11-30T17:09:41.644Z,101017.13
2022-11-30T17:12:43.692Z,101015.78
2022-11-30T17:15:45.778Z,101014.31
2022-11-30T17:18:47.615Z,101017.88
2022-11-30T17:21:51.068Z,101020.09
2022-11-30T17:24:52.831Z,101011.81
2022-11-30T17:27:54.874Z,101013.47
2022-11-30T17:30:56.534Z,101020.13
2022-11-30T17:33:58.841Z,101025.97
2022-11-30T17:37:00.627Z,101024.34
2022-11-30T17:40:04.124Z,101036.53
2022-11-30T17:43:05.750Z,101031.50
2022-11-30T17:46:11.192Z,101028.81
2022-11-30T17:49:13.327Z,101031.59
2022-11-30T17:52:15.447Z,101032.75
2022-11-30T17:55:17.628Z,101033.09
2022-11-30T17:58:20.282Z,101030.81
2022-11-30T18:01:24.756Z,101034.88
2022-11-30T18:04:26.824Z,101025.69
2022-11-30T18:07:29.068Z,101030.19
2022-11-30T18:10:31.220Z,101033.09
2022-11-30T18:13:33.056Z,101038.78
2022-11-30T18:16:37.509Z,101031.62
2022-11-30T18:19:39.549Z,101030.94
2022-11-30T18:22:41.723Z,101030.59
2022-11-30T18:25:43.824Z,101029.06
2022-11-30T18:28:46.592Z,101026.00
2022-11-30T18:31:51.880Z,101029.03
2022-11-30T18:34:54.992Z,101021.53
2022-11-30T18:37:57.949Z,101035.19
2022-11-30T18:41:00.902Z,101026.56
2022-11-30T18:44:03.068Z,101029.16
2022-11-30T18:47:05.216Z,101035.62
2022-11-30T18:50:07.823Z,101041.34
2022-11-30T18:53:13.766Z,101039.91
2022-11-30T18:56:20.714Z,101029.91
2022-11-30T18:59:22.950Z,101039.22
2022-11-30T19:02:24.640Z,101037.88
2022-11-30T19:05:32.493Z,101041.72
2022-11-30T19:08:37.268Z,101032.53
2022-11-30T19:11:40.534Z,101034.41
2022-11-30T19:14:45.342Z,101032.09
2022-11-30T19:17:48.687Z,101035.19
2022-11-30T19:20:50.648Z,101031.06
2022-11-30T19:23:52.764Z,101043.37
2022-11-30T19:26:54.894Z,101046.97
2022-11-30T19:29:56.974Z,101046.41
2022-11-30T19:32:59.076Z,101045.72
2022-11-30T19:36:05.158Z,101054.22
2022-11-30T19:39:07.272Z,101054.69
2022-11-30T19:42:11.426Z,101048.41
2022-11-30T19:45:13.592Z,101052.00
2022-11-30T19:48:15.704Z,101047.31
2022-11-30T19:51:18.636Z,101042.59
2022-11-30T19:54:21.038Z,101053.78
2022-11-30T19:57:23.149Z,101056.25
2022-11-30T20:00:26.660Z,101055.25
2022-11-30T20:03:30.215Z,101062.19
2022-11-30T20:06:38.669Z,101044.16
2022-11-30T20:09:41.137Z,101043.44
2022-11-30T20:12:43.231Z,101046.28
2022-11-30T20:15:45.383Z,101053.78
2022-11-30T20:18:53.113Z,101052.31
2022-11-30T20:21:55.656Z,101055.31
2022-11-30T20:24:57.761Z,101049.41
2022-11-30T20:28:00.212Z,101059.94
2022-11-30T20:31:02.923Z,101058.38
2022-11-30T20:34:06.004Z,101056.94
2022-11-30T20:37:08.217Z,101054.13
2022-11-30T20:40:10.572Z,101046.16
2022-11-30T20:43:12.424Z,101054.19
2022-11-30T20:46:17.209Z,101049.31
2022-11-30T20:49:21.655Z,101042.22
2022-11-30T20:52:23.864Z,101042.12
2022-11-30T20:55:25.486Z,101047.13
2022-11-30T20:58:27.735Z,101047.56
2022-11-30T21:01:30.238Z,101052.38
2022-11-30T21:04:31.962Z,101051.44
2022-11-30T21:07:34.476Z,101060.66
2022-11-30T21:10:40.028Z,101063.03
2022-11-30T21:13:43.987Z,101065.59
2022-11-30T21:16:45.563Z,101081.97
2022-11-30T21:19:47.216Z,101098.56
2022-11-30T21:22:49.208Z,101105.63
2022-11-30T21:25:50.796Z,101111.25
2022-11-30T21:28:54.062Z,101115.28
2022-11-30T21:31:55.671Z,101116.34
2022-11-30T21:34:57.361Z,101123.00
2022-11-30T21:37:58.958Z,101118.34
2022-11-30T21:41:01.898Z,101120.84
2022-11-30T21:44:04.700Z,101121.16
2022-11-30T21:47:06.276Z,101118.22
2022-11-30T21:50:08.630Z,101119.62
2022-11-30T21:53:10.159Z,101119.88
2022-11-30T21:56:14.765Z,101118.19
2022-11-30T21:59:16.611Z,101125.84
2022-11-30T22:02:18.178Z,101122.59
2022-11-30T22:05:19.747Z,101125.37
2022-11-30T22:08:21.318Z,101117.31
2022-11-30T22:11:23.618Z,101120.00
2022-11-30T22:14:25.171Z,101112.97
2022-11-30T22:17:26.729Z,101119.94
2022-11-30T22:20:28.274Z,101115.81
2022-11-30T22:23:30.012Z,101120.06
2022-11-30T22:26:34.322Z,101111.44
2022-11-30T22:29:35.929Z,101106.22
2022-11-30T22:32:42.155Z,101114.00
2022-11-30T22:35:44.989Z,101093.22
2022-11-30T22:38:47.814Z,101083.78
2022-11-30T22:41:55.601Z,101076.22
2022-11-30T22:44:58.126Z,101067.50
2022-11-30T22:47:59.648Z,101078.66
2022-11-30T22:51:06.454Z,101078.09
2022-11-30T22:54:08.992Z,101080.41
2022-11-30T22:57:10.514Z,101085.53
2022-11-30T23:00:12.678Z,101087.87
2022-11-30T23:03:14.424Z,101087.34
2022-11-30T23:06:18.774Z,101094.16
2022-11-30T23:09:22.608Z,101094.37
2022-11-30T23:12:50.849Z,101098.25
2022-11-30T23:15:45.800Z,101105.59
2022-11-30T23:18:55.892Z,101100.44
2022-11-30T23:21:57.457Z,101101.22
2022-11-30T23:24:59.008Z,101089.03
2022-11-30T23:28:00.525Z,101089.69
2022-11-30T23:31:03.917Z,101098.41
2022-11-30T23:34:07.896Z,101107.75
2022-11-30T23:37:09.455Z,101117.66
2022-11-30T23:40:11.801Z,101128.03
2022-11-30T23:43:13.339Z,101127.50
2022-11-30T23:46:14.948Z,101129.69
2022-11-30T23:49:16.522Z,101137.25
2022-11-30T23:52:18.297Z,101145.22
2022-11-30T23:55:19.871Z,101140.31
2022-11-30T23:58:22.824Z,101139.69
